createdAt,value
2023-04-01T00:01:08.885Z,9.50
2023-04-01T00:03:37.139Z,9.50
2023-04-01T00:06:05.602Z,9.50
2023-04-01T00:08:33.710Z,9.80
2023-04-01T00:11:03.059Z,9.60
2023-04-01T00:13:31.246Z,9.50
2023-04-01T00:16:00.257Z,9.40
2023-04-01T00:18:28.739Z,9.40
2023-04-01T00:20:56.770Z,9.40
2023-04-01T00:23:24.918Z,9.60
2023-04-01T00:25:52.946Z,9.40
2023-04-01T00:28:22.459Z,9.30
2023-04-01T00:30:50.650Z,9.30
2023-04-01T00:33:18.620Z,9.30
2023-04-01T00:35:47.079Z,9.30
2023-04-01T00:38:15.131Z,9.50
2023-04-01T00:40:45.872Z,9.20
2023-04-01T00:43:15.990Z,9.30
2023-04-01T00:45:47.544Z,9.80
2023-04-01T00:48:19.152Z,9.20
2023-04-01T00:50:49.236Z,9.20
2023-04-01T00:53:19.814Z,9.40
2023-04-01T00:55:53.566Z,9.60
2023-04-01T00:58:24.158Z,9.30
2023-04-01T01:00:54.063Z,9.30
2023-04-01T01:03:22.218Z,9.20
2023-04-01T01:06:24.207Z,9.30
2023-04-01T01:09:23.218Z,9.20
2023-04-01T01:11:56.797Z,9.20
2023-04-01T01:14:36.012Z,9.50
2023-04-01T01:17:11.213Z,9.20
2023-04-01T01:20:09.890Z,9.20
2023-04-01T01:23:14.669Z,9.60
2023-04-01T01:25:49.817Z,9.20
2023-04-01T01:28:34.856Z,9.20
2023-04-01T01:31:09.986Z,9.20
2023-04-01T01:34:02.951Z,9.30
2023-04-01T01:36:35.628Z,9.50
2023-04-01T01:39:05.146Z,9.20
2023-04-01T01:41:34.691Z,9.10
2023-04-01T01:44:06.938Z,9.10
2023-04-01T01:46:35.555Z,9.30
2023-04-01T01:49:06.100Z,9.10
2023-04-01T01:51:36.238Z,9.10
2023-04-01T01:54:04.414Z,9.10
2023-04-01T01:56:33.891Z,9.10
2023-04-01T01:59:05.340Z,9.70
2023-04-01T02:01:37.400Z,9.10
2023-04-01T02:04:06.342Z,9.10
2023-04-01T02:06:40.857Z,9.10
2023-04-01T02:09:11.664Z,9.10
2023-04-01T02:11:47.077Z,9.10
2023-04-01T02:14:17.846Z,9.10
2023-04-01T02:16:49.869Z,9.10
2023-04-01T02:19:23.474Z,9.10
2023-04-01T02:21:57.407Z,9.10
2023-04-01T02:24:28.146Z,9.70
2023-04-01T02:26:56.167Z,9.10
2023-04-01T02:29:26.538Z,9.00
2023-04-01T02:31:55.388Z,10.30
2023-04-01T02:34:25.224Z,9.10
2023-04-01T02:36:55.691Z,9.60
2023-04-01T02:39:23.703Z,9.10
2023-04-01T02:41:51.657Z,9.10
2023-04-01T02:44:19.664Z,9.10
2023-04-01T02:46:47.752Z,9.10
2023-04-01T02:49:15.704Z,9.10
2023-04-01T02:51:43.676Z,9.10
2023-04-01T02:54:12.999Z,9.10
2023-04-01T02:56:41.047Z,9.10
2023-04-01T02:59:09.032Z,9.10
2023-04-01T03:01:37.012Z,9.10
2023-04-01T03:04:05.454Z,9.30
2023-04-01T03:06:33.490Z,9.20
2023-04-01T03:09:01.423Z,9.50
2023-04-01T03:11:30.766Z,9.20
2023-04-01T03:13:58.662Z,9.20
2023-04-01T03:16:26.668Z,9.20
2023-04-01T03:18:56.424Z,9.20
2023-04-01T03:21:25.977Z,10.00
2023-04-01T03:23:54.383Z,9.20
2023-04-01T03:26:22.480Z,9.20
2023-04-01T03:28:51.882Z,9.60
2023-04-01T03:31:22.291Z,9.70
2023-04-01T03:33:51.428Z,9.90
2023-04-01T03:36:19.611Z,10.00
2023-04-01T03:38:47.648Z,9.20
2023-04-01T03:41:16.932Z,9.20
2023-04-01T03:43:45.015Z,9.30
2023-04-01T03:46:19.568Z,9.20
2023-04-01T03:48:47.866Z,9.20
2023-04-01T03:51:16.142Z,9.30
2023-04-01T03:53:44.097Z,9.20
2023-04-01T03:56:12.987Z,10.20
2023-04-01T03:58:40.984Z,9.80
2023-04-01T04:01:19.053Z,9.30
2023-04-01T04:03:47.415Z,9.50
2023-04-01T04:06:16.289Z,9.30
2023-04-01T04:08:44.475Z,9.30
2023-04-01T04:11:12.910Z,9.30
2023-04-01T04:13:41.011Z,9.30
2023-04-01T04:16:10.761Z,9.30
2023-04-01T04:18:40.256Z,9.30
2023-04-01T04:21:08.347Z,9.30
2023-04-01T04:23:38.175Z,9.30
2023-04-01T04:26:08.625Z,9.40
2023-04-01T04:28:37.088Z,9.30
2023-04-01T04:31:07.294Z,9.50
2023-04-01T04:33:35.412Z,9.40
2023-04-01T04:36:06.113Z,9.70
2023-04-01T04:38:34.119Z,9.30
2023-04-01T04:41:02.543Z,9.30
2023-04-01T04:43:30.496Z,9.30
2023-04-01T04:45:58.443Z,9.30
2023-04-01T04:48:26.465Z,10.30
2023-04-01T04:50:54.439Z,9.20
2023-04-01T04:53:23.836Z,9.30
2023-04-01T04:55:52.324Z,9.30
2023-04-01T04:58:21.227Z,9.20
2023-04-01T05:00:49.689Z,9.30
2023-04-01T05:03:17.918Z,9.20
2023-04-01T05:05:51.317Z,10.30
2023-04-01T05:08:19.545Z,9.30
2023-04-01T05:10:49.092Z,9.40
2023-04-01T05:13:17.094Z,9.30
2023-04-01T05:15:45.116Z,9.70
2023-04-01T05:18:13.078Z,9.90
2023-04-01T05:20:41.062Z,9.10
2023-04-01T05:23:09.051Z,10.20
2023-04-01T05:25:39.912Z,9.80
2023-04-01T05:28:09.281Z,9.20
2023-04-01T05:30:37.347Z,10.20
2023-04-01T05:33:05.542Z,9.10
2023-04-01T05:35:33.987Z,9.10
2023-04-01T05:38:02.138Z,9.20
2023-04-01T05:40:30.231Z,9.30
2023-04-01T05:42:58.272Z,9.30
2023-04-01T05:45:27.880Z,9.10
2023-04-01T05:47:55.972Z,9.10
2023-04-01T05:50:24.345Z,9.20
2023-04-01T05:52:52.383Z,9.10
2023-04-01T05:55:20.389Z,10.10
2023-04-01T05:57:49.424Z,9.60
2023-04-01T06:00:18.593Z,9.10
2023-04-01T06:02:48.520Z,9.00
2023-04-01T06:05:20.219Z,9.00
2023-04-01T06:07:48.672Z,9.10
2023-04-01T06:10:18.703Z,9.00
2023-04-01T06:13:08.580Z,9.00
2023-04-01T06:15:42.056Z,9.20
2023-04-01T06:18:41.562Z,9.20
2023-04-01T06:21:25.431Z,9.30
2023-04-01T06:24:04.808Z,9.30
2023-04-01T06:26:39.691Z,9.00
2023-04-01T06:29:45.286Z,9.00
2023-04-01T06:32:33.991Z,9.00
2023-04-01T06:35:25.612Z,9.00
2023-04-01T06:38:10.767Z,9.00
2023-04-01T06:41:04.339Z,9.00
2023-04-01T06:43:46.746Z,9.00
2023-04-01T06:46:24.561Z,9.60
2023-04-01T06:49:06.113Z,9.00
2023-04-01T06:51:47.054Z,9.10
2023-04-01T06:54:19.485Z,9.10
2023-04-01T06:56:52.470Z,9.10
2023-04-01T06:59:23.250Z,9.20
2023-04-01T07:01:54.825Z,9.70
2023-04-01T07:04:26.826Z,9.20
2023-04-01T07:07:00.538Z,9.90
2023-04-01T07:09:34.921Z,9.20
2023-04-01T07:12:06.380Z,10.20
2023-04-01T07:14:37.081Z,9.60
2023-04-01T07:17:09.770Z,9.30
2023-04-01T07:19:45.028Z,9.20
2023-04-01T07:22:26.335Z,8.40
2023-04-01T07:24:55.791Z,10.30
2023-04-01T07:27:25.111Z,9.40
2023-04-01T07:29:53.403Z,9.60
2023-04-01T07:32:30.897Z,9.40
2023-04-01T07:35:11.053Z,9.30
2023-04-01T07:37:49.415Z,9.30
2023-04-01T07:40:28.989Z,9.40
2023-04-01T07:43:11.978Z,10.40
2023-04-01T07:45:45.915Z,9.30
2023-04-01T07:48:24.035Z,9.40
2023-04-01T07:51:01.281Z,9.30
2023-04-01T07:53:38.349Z,9.30
2023-04-01T07:56:12.267Z,9.40
2023-04-01T07:58:52.677Z,9.40
2023-04-01T08:01:31.328Z,9.30
2023-04-01T08:04:27.127Z,9.40
2023-04-01T08:07:01.571Z,9.40
2023-04-01T08:09:42.028Z,9.50
2023-04-01T08:12:20.974Z,9.40
2023-04-01T08:14:57.941Z,9.50
2023-04-01T08:17:34.180Z,9.40
2023-04-01T08:20:16.617Z,9.40
2023-04-01T08:22:47.511Z,9.50
2023-04-01T08:25:22.473Z,9.90
2023-04-01T08:27:54.963Z,9.60
2023-04-01T08:30:25.763Z,9.50
2023-04-01T08:32:59.200Z,9.50
2023-04-01T08:35:34.248Z,9.50
2023-04-01T08:38:11.331Z,9.50
2023-04-01T08:41:02.454Z,9.50
2023-04-01T08:44:01.459Z,9.50
2023-04-01T08:47:04.482Z,9.50
2023-04-01T08:49:47.437Z,9.50
2023-04-01T08:52:29.816Z,9.60
2023-04-01T08:55:18.017Z,9.90
2023-04-01T08:57:58.615Z,9.70
2023-04-01T09:00:33.010Z,9.60
2023-04-01T09:03:29.672Z,9.60
2023-04-01T09:06:30.902Z,9.60
2023-04-01T09:09:23.889Z,10.70
2023-04-01T09:12:09.300Z,9.70
2023-04-01T09:14:57.890Z,9.70
2023-04-01T09:17:45.453Z,9.70
2023-04-01T09:20:43.681Z,9.70
2023-04-01T09:23:31.163Z,9.80
2023-04-01T09:26:25.073Z,9.70
2023-04-01T09:29:02.593Z,9.70
2023-04-01T09:32:12.989Z,9.60
2023-04-01T09:34:56.042Z,9.70
2023-04-01T09:37:36.802Z,9.70
2023-04-01T09:40:19.774Z,10.20
2023-04-01T09:43:08.624Z,9.70
2023-04-01T09:45:55.023Z,9.80
2023-04-01T09:48:57.586Z,9.80
2023-04-01T09:51:33.243Z,9.80
2023-04-01T09:54:14.336Z,9.90
2023-04-01T09:57:37.195Z,9.90
2023-04-01T10:00:40.756Z,9.80
2023-04-01T10:03:56.604Z,9.90
2023-04-01T10:07:05.679Z,9.90
2023-04-01T10:10:03.730Z,9.90
2023-04-01T10:13:08.796Z,9.90
2023-04-01T10:16:18.830Z,9.90
2023-04-01T10:19:25.471Z,9.80
2023-04-01T10:22:13.739Z,9.80
2023-04-01T10:25:17.492Z,9.80
2023-04-01T10:28:28.929Z,9.90
2023-04-01T10:31:23.804Z,10.00
2023-04-01T10:34:24.674Z,9.90
2023-04-01T10:36:57.010Z,10.00
2023-04-01T10:39:39.714Z,10.00
2023-04-01T10:42:52.720Z,9.90
2023-04-01T10:45:59.431Z,9.90
2023-04-01T10:49:15.306Z,10.00
2023-04-01T10:52:26.744Z,10.00
2023-04-01T10:55:16.312Z,10.10
2023-04-01T10:58:17.058Z,10.20
2023-04-01T11:01:09.494Z,10.10
2023-04-01T11:04:24.956Z,11.10
2023-04-01T11:07:38.013Z,10.20
2023-04-01T11:10:51.699Z,10.20
2023-04-01T11:13:48.371Z,10.10
2023-04-01T11:16:51.119Z,11.10
2023-04-01T11:19:51.566Z,10.10
2023-04-01T11:22:51.997Z,10.00
2023-04-01T11:25:47.111Z,10.10
2023-04-01T11:28:29.713Z,10.10
2023-04-01T11:31:35.425Z,10.10
2023-04-01T11:34:17.011Z,10.20
2023-04-01T11:36:53.604Z,10.80
2023-04-01T11:39:33.333Z,10.10
2023-04-01T11:42:14.508Z,10.50
2023-04-01T11:44:53.427Z,10.10
2023-04-01T11:47:35.674Z,10.20
2023-04-01T11:50:20.516Z,10.20
2023-04-01T11:53:21.330Z,10.20
2023-04-01T11:56:01.432Z,10.80
2023-04-01T11:58:50.362Z,10.10
2023-04-01T12:01:27.329Z,10.20
2023-04-01T12:04:33.648Z,10.70
2023-04-01T12:07:07.997Z,10.40
2023-04-01T12:09:48.062Z,11.40
2023-04-01T12:12:26.025Z,10.50
2023-04-01T12:15:05.102Z,10.60
2023-04-01T12:17:42.669Z,11.40
2023-04-01T12:20:36.324Z,10.40
2023-04-01T12:23:15.341Z,10.40
2023-04-01T12:26:07.501Z,10.40
2023-04-01T12:28:48.022Z,10.40
2023-04-01T12:31:33.807Z,10.50
2023-04-01T12:34:29.073Z,10.70
2023-04-01T12:37:10.154Z,10.70
2023-04-01T12:40:00.044Z,10.70
2023-04-01T12:42:46.690Z,10.70
2023-04-01T12:45:35.529Z,10.60
2023-04-01T12:48:30.014Z,10.70
2023-04-01T12:51:37.684Z,10.70
2023-04-01T12:55:01.071Z,10.70
2023-04-01T12:57:41.744Z,10.60
2023-04-01T13:00:29.219Z,10.60
2023-04-01T13:03:16.641Z,10.70
2023-04-01T13:06:20.431Z,10.70
2023-04-01T13:08:57.844Z,10.70
2023-04-01T13:11:39.893Z,10.70
2023-04-01T13:14:39.467Z,10.70
2023-04-01T13:17:20.003Z,10.60
2023-04-01T13:20:04.200Z,10.70
2023-04-01T13:22:43.746Z,10.70
2023-04-01T13:25:25.828Z,10.90
2023-04-01T13:28:05.295Z,10.70
2023-04-01T13:30:39.312Z,10.70
2023-04-01T13:33:16.484Z,11.60
2023-04-01T13:35:53.689Z,10.70
2023-04-01T13:38:44.183Z,10.80
2023-04-01T13:41:24.419Z,11.00
2023-04-01T13:44:00.727Z,10.90
2023-04-01T13:46:52.483Z,10.80
2023-04-01T13:49:50.165Z,10.80
2023-04-01T13:52:52.778Z,10.80
2023-04-01T13:55:32.936Z,10.80
2023-04-01T13:58:31.017Z,10.70
2023-04-01T14:01:10.862Z,10.60
2023-04-01T14:03:56.776Z,10.70
2023-04-01T14:06:36.638Z,10.80
2023-04-01T14:09:23.054Z,10.70
2023-04-01T14:12:00.489Z,10.80
2023-04-01T14:14:37.364Z,10.70
2023-04-01T14:17:23.823Z,10.70
2023-04-01T14:20:28.416Z,10.80
2023-04-01T14:23:15.796Z,10.70
2023-04-01T14:26:19.557Z,10.70
2023-04-01T14:28:55.244Z,10.80
2023-04-01T14:31:50.694Z,10.80
2023-04-01T14:34:33.402Z,10.80
2023-04-01T14:37:18.021Z,10.90
2023-04-01T14:40:21.350Z,10.90
2023-04-01T14:43:06.649Z,10.90
2023-04-01T14:45:48.373Z,11.00
2023-04-01T14:48:25.975Z,11.00
2023-04-01T14:50:57.868Z,11.10
2023-04-01T14:53:30.532Z,11.10
2023-04-01T14:56:00.050Z,11.20
2023-04-01T14:58:42.828Z,11.20
2023-04-01T15:01:20.962Z,12.00
2023-04-01T15:03:57.111Z,11.00
2023-04-01T15:06:49.775Z,11.80
2023-04-01T15:09:24.724Z,11.30
2023-04-01T15:12:06.900Z,11.30
2023-04-01T15:14:51.121Z,11.30
2023-04-01T15:17:57.047Z,11.10
2023-04-01T15:20:48.046Z,11.10
2023-04-01T15:23:27.953Z,11.10
2023-04-01T15:26:33.264Z,11.10
2023-04-01T15:29:19.825Z,11.00
2023-04-01T15:31:59.009Z,11.10
2023-04-01T15:34:34.317Z,11.00
2023-04-01T15:37:10.047Z,11.30
2023-04-01T15:39:53.533Z,11.10
2023-04-01T15:42:32.937Z,11.20
2023-04-01T15:45:19.558Z,11.30
2023-04-01T15:47:54.984Z,11.20
2023-04-01T15:50:40.233Z,11.10
2023-04-01T15:53:28.832Z,11.20
2023-04-01T15:56:09.635Z,11.20
2023-04-01T15:58:57.725Z,11.20
2023-04-01T16:01:36.548Z,11.10
2023-04-01T16:04:19.577Z,11.20
2023-04-01T16:07:01.511Z,11.20
2023-04-01T16:09:49.392Z,11.10
2023-04-01T16:12:23.077Z,11.10
2023-04-01T16:15:06.077Z,11.10
2023-04-01T16:17:50.078Z,11.20
2023-04-01T16:20:22.334Z,11.10
2023-04-01T16:22:54.319Z,11.10
2023-04-01T16:25:33.163Z,11.10
2023-04-01T16:28:15.824Z,11.20
2023-04-01T16:30:49.926Z,11.20
2023-04-01T16:33:24.692Z,11.10
2023-04-01T16:36:00.044Z,11.30
2023-04-01T16:38:38.423Z,11.00
2023-04-01T16:41:26.843Z,11.10
2023-04-01T16:44:00.120Z,11.00
2023-04-01T16:46:36.649Z,11.00
2023-04-01T16:49:27.504Z,11.00
2023-04-01T16:51:59.735Z,11.10
2023-04-01T16:54:37.800Z,11.10
2023-04-01T16:57:19.607Z,12.00
2023-04-01T16:59:58.780Z,11.00
2023-04-01T17:02:30.738Z,11.20
2023-04-01T17:05:05.092Z,10.90
2023-04-01T17:07:47.407Z,10.80
2023-04-01T17:10:39.418Z,10.90
2023-04-01T17:13:29.447Z,10.80
2023-04-01T17:16:06.678Z,10.80
2023-04-01T17:18:44.531Z,10.80
2023-04-01T17:21:19.925Z,10.80
2023-04-01T17:23:53.776Z,10.80
2023-04-01T17:26:34.000Z,10.80
2023-04-01T17:29:13.015Z,10.80
2023-04-01T17:31:53.829Z,10.80
2023-04-01T17:34:37.538Z,10.70
2023-04-01T17:37:24.940Z,10.70
2023-04-01T17:40:08.546Z,10.70
2023-04-01T17:42:44.657Z,10.60
2023-04-01T17:45:22.500Z,10.60
2023-04-01T17:48:03.160Z,10.60
2023-04-01T17:50:44.465Z,10.60
2023-04-01T17:53:23.552Z,10.60
2023-04-01T17:56:04.225Z,10.70
2023-04-01T17:58:40.500Z,10.70
2023-04-01T18:01:17.730Z,10.60
2023-04-01T18:03:59.321Z,11.00
2023-04-01T18:06:37.207Z,10.50
2023-04-01T18:09:18.863Z,10.50
2023-04-01T18:12:01.388Z,10.30
2023-04-01T18:14:55.273Z,10.70
2023-04-01T18:17:29.864Z,10.30
2023-04-01T18:20:17.290Z,10.30
2023-04-01T18:22:49.324Z,10.20
2023-04-01T18:25:23.382Z,10.30
2023-04-01T18:27:55.866Z,10.30
2023-04-01T18:30:30.897Z,10.20
2023-04-01T18:33:03.387Z,10.20
2023-04-01T18:35:48.154Z,10.20
2023-04-01T18:38:18.882Z,10.80
2023-04-01T18:40:53.798Z,10.10
2023-04-01T18:43:38.615Z,10.30
2023-04-01T18:46:14.352Z,10.10
2023-04-01T18:48:54.378Z,10.10
2023-04-01T18:51:28.895Z,10.40
2023-04-01T18:54:01.364Z,10.30
2023-04-01T18:56:32.701Z,10.20
2023-04-01T18:59:08.701Z,9.90
2023-04-01T19:01:43.112Z,10.20
2023-04-01T19:04:20.731Z,10.20
2023-04-01T19:06:52.968Z,9.90
2023-04-01T19:09:25.623Z,9.90
2023-04-01T19:12:25.466Z,9.90
2023-04-01T19:15:12.624Z,9.90
2023-04-01T19:17:53.998Z,9.80
2023-04-01T19:20:31.556Z,9.80
2023-04-01T19:23:35.449Z,9.70
2023-04-01T19:26:07.539Z,10.50
2023-04-01T19:28:45.922Z,9.70
2023-04-01T19:31:37.549Z,9.70
2023-04-01T19:34:17.618Z,9.60
2023-04-01T19:36:51.361Z,9.60
2023-04-01T19:39:37.940Z,9.60
2023-04-01T19:42:13.536Z,9.60
2023-04-01T19:44:53.948Z,10.50
2023-04-01T19:47:32.654Z,9.60
2023-04-01T19:50:11.607Z,9.70
2023-04-01T19:52:42.217Z,9.60
2023-04-01T19:55:23.813Z,9.60
2023-04-01T19:58:02.908Z,9.50
2023-04-01T20:00:36.471Z,9.60
2023-04-01T20:03:12.305Z,10.20
2023-04-01T20:05:56.064Z,9.50
2023-04-01T20:08:34.054Z,9.50
2023-04-01T20:11:24.216Z,9.50
2023-04-01T20:14:05.419Z,9.40
2023-04-01T20:16:53.313Z,9.30
2023-04-01T20:19:30.998Z,9.30
2023-04-01T20:22:02.376Z,9.30
2023-04-01T20:24:35.413Z,9.30
2023-04-01T20:27:10.689Z,9.60
2023-04-01T20:30:05.925Z,9.30
2023-04-01T20:32:50.719Z,9.20
2023-04-01T20:35:34.250Z,9.20
2023-04-01T20:38:20.189Z,9.30
2023-04-01T20:40:51.673Z,9.30
2023-04-01T20:43:44.960Z,9.50
2023-04-01T20:46:22.002Z,9.10
2023-04-01T20:49:21.969Z,9.60
2023-04-01T20:51:56.370Z,9.00
2023-04-01T20:54:48.406Z,9.10
2023-04-01T20:57:21.447Z,8.90
2023-04-01T21:00:05.907Z,9.00
2023-04-01T21:02:50.606Z,9.10
2023-04-01T21:05:42.526Z,9.30
2023-04-01T21:08:17.922Z,8.90
2023-04-01T21:10:52.279Z,8.90
2023-04-01T21:13:34.444Z,8.90
2023-04-01T21:16:16.920Z,8.80
2023-04-01T21:19:00.502Z,8.90
2023-04-01T21:21:51.080Z,8.80
2023-04-01T21:24:59.209Z,9.40
2023-04-01T21:27:39.760Z,8.80
2023-04-01T21:30:28.947Z,8.90
2023-04-01T21:33:28.995Z,8.80
2023-04-01T21:36:06.419Z,8.80
2023-04-01T21:38:52.717Z,9.10
2023-04-01T21:41:43.555Z,8.80
2023-04-01T21:44:40.570Z,8.60
2023-04-01T21:47:33.909Z,8.60
2023-04-01T21:50:47.194Z,8.60
2023-04-01T21:53:49.319Z,8.60
2023-04-01T21:56:52.409Z,8.60
2023-04-01T21:59:56.519Z,8.60
2023-04-01T22:03:02.013Z,8.60
2023-04-01T22:05:36.855Z,8.60
2023-04-01T22:08:14.043Z,8.50
2023-04-01T22:10:48.114Z,8.50
2023-04-01T22:13:19.651Z,8.50
2023-04-01T22:16:10.387Z,8.40
2023-04-01T22:18:45.312Z,8.90
2023-04-01T22:21:22.986Z,8.40
2023-04-01T22:24:00.970Z,8.50
2023-04-01T22:26:33.595Z,8.30
2023-04-01T22:29:08.868Z,8.50
2023-04-01T22:31:45.332Z,8.30
2023-04-01T22:34:19.859Z,8.70
2023-04-01T22:36:55.314Z,8.70
2023-04-01T22:39:43.228Z,8.40
2023-04-01T22:42:28.436Z,8.50
2023-04-01T22:45:07.361Z,8.20
2023-04-01T22:47:43.029Z,8.20
2023-04-01T22:50:18.047Z,8.20
2023-04-01T22:52:49.370Z,8.10
2023-04-01T22:55:23.139Z,9.30
2023-04-01T22:57:55.215Z,8.10
2023-04-01T23:00:28.113Z,8.10
2023-04-01T23:03:11.242Z,8.10
2023-04-01T23:05:45.179Z,8.10
2023-04-01T23:08:41.919Z,8.10
2023-04-01T23:11:13.960Z,8.10
2023-04-01T23:13:49.265Z,8.10
2023-04-01T23:16:19.126Z,8.50
2023-04-01T23:18:54.029Z,8.50
2023-04-01T23:21:28.895Z,8.60
2023-04-01T23:24:07.499Z,8.00
2023-04-01T23:26:41.654Z,8.00
2023-04-01T23:29:16.274Z,8.00
2023-04-01T23:31:45.425Z,7.90
2023-04-01T23:34:27.178Z,8.30
2023-04-01T23:36:58.396Z,7.90
2023-04-01T23:39:31.884Z,8.10
2023-04-01T23:42:04.212Z,7.90
2023-04-01T23:44:34.721Z,8.40
2023-04-01T23:47:04.335Z,8.00
2023-04-01T23:49:37.910Z,7.80
2023-04-01T23:52:14.048Z,7.80
2023-04-01T23:54:46.144Z,7.80
2023-04-01T23:57:17.245Z,8.40
2023-04-01T23:59:45.388Z,8.00
